createdAt,value
2023-01-05T00:00:32.089Z,69.37
2023-01-05T00:01:22.382Z,69.36
2023-01-05T00:01:54.641Z,69.45
2023-01-05T00:02:29.102Z,69.56
2023-01-05T00:03:01.299Z,69.54
2023-01-05T00:03:34.646Z,69.59
2023-01-05T00:04:07.362Z,69.79
2023-01-05T00:04:39.462Z,69.72
2023-01-05T00:05:11.801Z,69.68
2023-01-05T00:05:44.237Z,69.87
2023-01-05T00:06:17.772Z,69.76
2023-01-05T00:06:49.796Z,69.94
2023-01-05T00:07:21.683Z,70.04
2023-01-05T00:07:53.916Z,69.90
2023-01-05T00:08:29.096Z,69.85
2023-01-05T00:09:04.294Z,69.89
2023-01-05T00:09:38.109Z,69.78
2023-01-05T00:10:30.260Z,69.92
2023-01-05T00:11:25.376Z,69.98
2023-01-05T00:12:16.059Z,69.90
2023-01-05T00:13:13.782Z,70.08
2023-01-05T00:14:04.296Z,70.15
2023-01-05T00:15:04.354Z,70.01
2023-01-05T00:15:55.570Z,70.34
2023-01-05T00:16:46.263Z,70.22
2023-01-05T00:17:40.140Z,70.33
2023-01-05T00:18:34.293Z,70.23
2023-01-05T00:19:29.193Z,70.22
2023-01-05T00:20:20.140Z,70.27
2023-01-05T00:21:10.516Z,70.33
2023-01-05T00:22:01.613Z,70.38
2023-01-05T00:22:38.415Z,70.36
2023-01-05T00:23:21.366Z,70.40
2023-01-05T00:23:53.793Z,70.42
2023-01-05T00:24:26.137Z,70.58
2023-01-05T00:24:57.982Z,70.63
2023-01-05T00:25:33.456Z,70.39
2023-01-05T00:26:18.894Z,70.52
2023-01-05T00:26:50.993Z,70.69
2023-01-05T00:27:23.129Z,70.53
2023-01-05T00:27:56.078Z,70.71
2023-01-05T00:28:28.071Z,70.76
2023-01-05T00:29:09.504Z,70.65
2023-01-05T00:29:41.440Z,70.49
2023-01-05T00:30:16.697Z,70.63
2023-01-05T00:30:52.107Z,70.75
2023-01-05T00:31:24.449Z,70.65
2023-01-05T00:31:56.902Z,70.86
2023-01-05T00:32:29.186Z,70.84
2023-01-05T00:33:01.342Z,70.89
2023-01-05T00:33:57.807Z,70.67
2023-01-05T00:34:30.045Z,70.92
2023-01-05T00:35:02.371Z,70.73
2023-01-05T00:35:34.270Z,70.75
2023-01-05T00:36:10.307Z,70.89
2023-01-05T00:36:42.281Z,70.84
2023-01-05T00:37:14.478Z,71.09
2023-01-05T00:37:46.639Z,70.79
2023-01-05T00:38:18.587Z,71.05
2023-01-05T00:38:51.535Z,71.01
2023-01-05T00:39:23.836Z,71.15
2023-01-05T00:39:56.164Z,71.23
2023-01-05T00:40:28.471Z,70.98
2023-01-05T00:41:00.751Z,71.21
2023-01-05T00:41:32.948Z,71.13
2023-01-05T00:42:05.213Z,71.12
2023-01-05T00:42:37.495Z,71.12
2023-01-05T00:43:09.782Z,71.18
2023-01-05T00:43:44.249Z,71.22
2023-01-05T00:44:16.265Z,71.39
2023-01-05T00:44:48.330Z,71.06
2023-01-05T00:45:21.591Z,71.27
2023-01-05T00:45:53.970Z,71.39
2023-01-05T00:46:26.288Z,71.34
2023-01-05T00:46:58.268Z,71.31
2023-01-05T00:47:30.204Z,71.40
2023-01-05T00:48:18.480Z,71.46
2023-01-05T00:48:50.497Z,71.34
2023-01-05T00:49:22.401Z,71.52
2023-01-05T00:49:57.088Z,71.83
2023-01-05T00:50:29.791Z,71.51
2023-01-05T00:51:02.559Z,71.62
2023-01-05T00:51:34.446Z,71.55
2023-01-05T00:52:06.831Z,71.92
2023-01-05T00:52:38.904Z,71.65
2023-01-05T00:53:11.090Z,71.57
2023-01-05T00:53:43.101Z,71.69
2023-01-05T00:54:17.840Z,71.47
2023-01-05T00:54:49.909Z,71.45
2023-01-05T00:55:21.818Z,71.69
2023-01-05T00:55:59.851Z,71.79
2023-01-05T00:56:31.955Z,71.67
2023-01-05T00:57:05.650Z,71.60
2023-01-05T00:57:37.667Z,71.60
2023-01-05T00:58:09.705Z,71.64
2023-01-05T00:58:41.735Z,71.79
2023-01-05T00:59:13.733Z,71.79
2023-01-05T00:59:45.680Z,71.86
2023-01-05T01:00:20.157Z,71.86
2023-01-05T01:00:53.478Z,72.05
2023-01-05T01:01:25.526Z,71.93
2023-01-05T01:01:57.604Z,71.89
2023-01-05T01:02:29.687Z,72.21
2023-01-05T01:03:02.379Z,71.98
2023-01-05T01:03:35.804Z,72.07
2023-01-05T01:04:07.843Z,72.14
2023-01-05T01:04:40.096Z,71.96
2023-01-05T01:05:12.666Z,71.91
2023-01-05T01:05:44.568Z,72.06
2023-01-05T01:06:25.666Z,71.91
2023-01-05T01:06:58.581Z,71.87
2023-01-05T01:07:30.536Z,72.03
2023-01-05T01:08:02.425Z,71.95
2023-01-05T01:08:34.670Z,71.94
2023-01-05T01:09:06.815Z,72.27
2023-01-05T01:09:40.173Z,72.08
2023-01-05T01:10:12.465Z,71.96
2023-01-05T01:10:44.308Z,72.00
2023-01-05T01:11:16.516Z,72.24
2023-01-05T01:11:48.836Z,72.15
2023-01-05T01:12:20.871Z,72.18
2023-01-05T01:12:54.289Z,72.15
2023-01-05T01:13:26.511Z,72.21
2023-01-05T01:13:58.580Z,72.35
2023-01-05T01:14:30.492Z,72.17
2023-01-05T01:15:02.892Z,72.11
2023-01-05T01:15:35.469Z,72.18
2023-01-05T01:16:09.559Z,72.19
2023-01-05T01:16:42.478Z,72.11
2023-01-05T01:17:15.842Z,72.03
2023-01-05T01:17:47.816Z,72.09
2023-01-05T01:18:19.948Z,72.03
2023-01-05T01:18:53.596Z,72.39
2023-01-05T01:19:27.223Z,72.29
2023-01-05T01:19:59.174Z,72.24
2023-01-05T01:20:31.209Z,72.11
2023-01-05T01:21:04.145Z,72.32
2023-01-05T01:21:36.247Z,72.41
2023-01-05T01:22:08.328Z,72.43
2023-01-05T01:22:40.544Z,72.25
2023-01-05T01:23:12.620Z,72.33
2023-01-05T01:23:44.816Z,72.27
2023-01-05T01:24:20.645Z,72.21
2023-01-05T01:24:52.623Z,72.34
2023-01-05T01:25:33.314Z,72.19
2023-01-05T01:26:09.671Z,72.24
2023-01-05T01:26:41.616Z,72.25
2023-01-05T01:27:13.799Z,72.20
2023-01-05T01:27:45.858Z,72.48
2023-01-05T01:28:17.983Z,72.31
2023-01-05T01:28:50.056Z,72.23
2023-01-05T01:29:23.175Z,72.57
2023-01-05T01:29:54.986Z,72.40
2023-01-05T01:30:27.097Z,72.54
2023-01-05T01:30:59.361Z,72.53
2023-01-05T01:31:31.288Z,72.43
2023-01-05T01:32:13.260Z,72.46
2023-01-05T01:32:45.383Z,72.65
2023-01-05T01:33:17.288Z,72.59
2023-01-05T01:33:49.469Z,72.67
2023-01-05T01:34:21.532Z,72.49
2023-01-05T01:34:54.748Z,72.25
2023-01-05T01:35:54.689Z,72.49
2023-01-05T01:36:26.843Z,72.73
2023-01-05T01:36:59.976Z,72.58
2023-01-05T01:37:32.039Z,72.34
2023-01-05T01:38:04.268Z,72.47
2023-01-05T01:38:36.518Z,72.47
2023-01-05T01:39:08.971Z,72.30
2023-01-05T01:39:40.930Z,72.51
2023-01-05T01:40:13.703Z,72.62
2023-01-05T01:40:47.246Z,72.61
2023-01-05T01:41:19.440Z,72.46
2023-01-05T01:41:51.454Z,72.61
2023-01-05T01:42:23.546Z,72.65
2023-01-05T01:42:55.663Z,72.79
2023-01-05T01:43:44.331Z,72.83
2023-01-05T01:44:47.886Z,72.80
2023-01-05T01:45:25.075Z,72.91
2023-01-05T01:45:57.278Z,72.66
2023-01-05T01:46:29.798Z,72.83
2023-01-05T01:47:01.856Z,72.78
2023-01-05T01:47:47.031Z,72.94
2023-01-05T01:48:19.451Z,72.92
2023-01-05T01:49:04.528Z,72.96
2023-01-05T01:49:36.704Z,72.74
2023-01-05T01:50:21.579Z,73.02
2023-01-05T01:50:54.584Z,72.94
2023-01-05T01:51:36.885Z,72.94
2023-01-05T01:52:09.338Z,72.81
2023-01-05T01:52:42.735Z,72.82
2023-01-05T01:53:20.574Z,72.97
2023-01-05T01:53:57.610Z,72.99
2023-01-05T01:54:29.832Z,73.02
2023-01-05T01:55:04.162Z,73.00
2023-01-05T01:55:38.742Z,73.10
2023-01-05T01:56:16.186Z,73.03
2023-01-05T01:56:53.111Z,72.90
2023-01-05T01:57:27.711Z,73.08
2023-01-05T01:58:02.707Z,72.98
2023-01-05T01:58:35.305Z,73.00
2023-01-05T01:59:08.291Z,72.96
2023-01-05T01:59:40.823Z,73.01
2023-01-05T02:00:14.288Z,73.00
2023-01-05T02:00:47.392Z,72.86
2023-01-05T02:01:19.686Z,72.85
2023-01-05T02:01:56.321Z,72.72
2023-01-05T02:02:29.728Z,72.72
2023-01-05T02:03:02.153Z,72.69
2023-01-05T02:03:34.292Z,72.77
2023-01-05T02:04:07.626Z,72.87
2023-01-05T02:04:40.231Z,72.84
2023-01-05T02:05:15.688Z,72.94
2023-01-05T02:05:47.707Z,72.88
2023-01-05T02:06:19.741Z,72.98
2023-01-05T02:06:54.493Z,72.84
2023-01-05T02:07:32.306Z,72.90
2023-01-05T02:08:11.096Z,72.97
2023-01-05T02:08:43.678Z,72.87
2023-01-05T02:09:15.686Z,72.84
2023-01-05T02:09:47.658Z,72.89
2023-01-05T02:10:33.780Z,72.63
2023-01-05T02:11:30.510Z,72.84
2023-01-05T02:12:05.379Z,72.98
2023-01-05T02:12:52.476Z,72.67
2023-01-05T02:13:39.413Z,72.82
2023-01-05T02:14:19.962Z,72.89
2023-01-05T02:15:05.650Z,72.85
2023-01-05T02:15:57.488Z,72.85
2023-01-05T02:17:05.191Z,72.95
2023-01-05T02:18:14.110Z,72.95
2023-01-05T02:19:00.954Z,73.03
2023-01-05T02:19:32.986Z,72.91
2023-01-05T02:20:49.710Z,72.87
2023-01-05T02:21:45.767Z,72.82
2023-01-05T02:22:39.526Z,72.99
2023-01-05T02:23:25.193Z,72.97
2023-01-05T02:24:11.915Z,72.80
2023-01-05T02:25:04.900Z,73.09
2023-01-05T02:26:00.705Z,73.17
2023-01-05T02:27:26.857Z,73.13
2023-01-05T02:28:13.654Z,73.09
2023-01-05T02:29:30.751Z,73.12
2023-01-05T02:30:17.435Z,73.18
2023-01-05T02:31:16.906Z,73.34
2023-01-05T02:31:57.683Z,73.22
2023-01-05T02:32:34.523Z,73.37
2023-01-05T02:33:38.747Z,73.30
2023-01-05T02:34:38.163Z,73.28
2023-01-05T02:35:15.760Z,73.27
2023-01-05T02:36:09.623Z,73.52
2023-01-05T02:36:53.529Z,73.60
2023-01-05T02:37:57.575Z,73.55
2023-01-05T02:38:37.392Z,73.67
2023-01-05T02:39:44.803Z,73.95
2023-01-05T02:40:32.096Z,73.65
2023-01-05T02:41:14.051Z,73.73
2023-01-05T02:43:00.502Z,74.06
2023-01-05T02:43:33.983Z,74.13
2023-01-05T02:44:22.825Z,74.27
2023-01-05T02:45:16.496Z,74.04
2023-01-05T02:45:49.121Z,74.32
2023-01-05T02:46:21.362Z,74.23
2023-01-05T02:47:27.512Z,74.30
2023-01-05T02:47:59.609Z,74.51
2023-01-05T02:48:39.529Z,74.12
2023-01-05T02:49:17.443Z,74.45
2023-01-05T02:49:49.698Z,74.38
2023-01-05T02:50:47.112Z,74.46
2023-01-05T02:51:41.774Z,74.48
2023-01-05T02:52:15.529Z,74.56
2023-01-05T02:52:54.256Z,74.64
2023-01-05T02:53:47.189Z,74.53
2023-01-05T02:54:29.038Z,74.80
2023-01-05T02:55:08.146Z,74.87
2023-01-05T02:55:54.719Z,74.74
2023-01-05T02:56:36.943Z,74.79
2023-01-05T02:57:42.808Z,74.78
2023-01-05T02:58:33.793Z,74.72
2023-01-05T02:59:22.971Z,74.91
2023-01-05T02:59:55.862Z,74.73
2023-01-05T03:00:43.991Z,74.82
2023-01-05T03:01:35.608Z,74.84
2023-01-05T03:02:20.490Z,74.79
2023-01-05T03:03:06.490Z,75.10
2023-01-05T03:03:44.909Z,74.87
2023-01-05T03:04:24.542Z,74.91
2023-01-05T03:05:09.572Z,75.07
2023-01-05T03:05:54.641Z,74.82
2023-01-05T03:06:26.734Z,75.14
2023-01-05T03:07:06.924Z,74.97
2023-01-05T03:07:43.545Z,75.17
2023-01-05T03:08:30.608Z,75.07
2023-01-05T03:09:06.191Z,75.24
2023-01-05T03:09:40.559Z,75.14
2023-01-05T03:10:32.760Z,75.15
2023-01-05T03:11:26.413Z,75.18
2023-01-05T03:12:26.397Z,75.15
2023-01-05T03:13:40.000Z,75.11
2023-01-05T03:14:23.825Z,75.06
2023-01-05T03:15:06.414Z,75.06
2023-01-05T03:15:42.599Z,75.06
2023-01-05T03:16:34.477Z,75.04
2023-01-05T03:17:11.509Z,75.04
2023-01-05T03:17:59.608Z,74.97
2023-01-05T03:18:59.189Z,75.26
2023-01-05T03:20:40.738Z,75.18
2023-01-05T03:21:27.062Z,75.13
2023-01-05T03:22:29.023Z,75.03
2023-01-05T03:23:23.558Z,75.04
2023-01-05T03:24:15.699Z,75.25
2023-01-05T03:25:06.769Z,75.08
2023-01-05T03:25:58.046Z,75.12
2023-01-05T03:26:49.451Z,75.26
2023-01-05T03:27:47.464Z,75.17
2023-01-05T03:29:16.487Z,75.09
2023-01-05T03:30:07.082Z,75.24
2023-01-05T03:31:30.927Z,75.32
2023-01-05T03:32:45.772Z,75.47
2023-01-05T03:33:55.016Z,75.27
2023-01-05T03:34:52.530Z,75.26
2023-01-05T03:35:32.425Z,75.41
2023-01-05T03:36:08.433Z,75.30
2023-01-05T03:36:55.811Z,75.34
2023-01-05T03:37:35.611Z,75.17
2023-01-05T03:38:17.637Z,75.59
2023-01-05T03:38:53.291Z,75.50
2023-01-05T03:39:27.482Z,75.38
2023-01-05T03:40:01.597Z,75.41
2023-01-05T03:40:36.675Z,75.64
2023-01-05T03:41:10.330Z,75.53
2023-01-05T03:41:42.687Z,75.38
2023-01-05T03:42:15.963Z,75.48
2023-01-05T03:42:48.488Z,75.65
2023-01-05T03:43:21.618Z,75.28
2023-01-05T03:43:53.949Z,75.57
2023-01-05T03:44:26.529Z,75.46
2023-01-05T03:44:58.676Z,75.51
2023-01-05T03:45:41.093Z,75.45
2023-01-05T03:46:21.114Z,75.41
2023-01-05T03:46:53.268Z,75.33
2023-01-05T03:47:25.282Z,75.29
2023-01-05T03:47:57.268Z,75.28
2023-01-05T03:48:29.410Z,75.10
2023-01-05T03:49:01.487Z,75.30
2023-01-05T03:49:33.671Z,75.24
2023-01-05T03:50:06.281Z,75.16
2023-01-05T03:50:38.141Z,75.11
2023-01-05T03:51:10.448Z,75.32
2023-01-05T03:51:42.462Z,75.12
2023-01-05T03:52:14.405Z,75.19
2023-01-05T03:52:46.372Z,75.19
2023-01-05T03:53:18.452Z,75.22
2023-01-05T03:53:50.438Z,75.15
2023-01-05T03:54:22.486Z,75.23
2023-01-05T03:54:54.468Z,75.16
2023-01-05T03:55:26.438Z,75.12
2023-01-05T03:55:58.697Z,75.07
2023-01-05T03:56:31.124Z,75.12
2023-01-05T03:57:03.331Z,75.04
2023-01-05T03:57:35.422Z,75.06
2023-01-05T03:58:07.739Z,75.02
2023-01-05T03:58:39.716Z,74.88
2023-01-05T03:59:11.783Z,74.92
2023-01-05T03:59:43.895Z,74.74
2023-01-05T04:00:16.273Z,74.76
2023-01-05T04:00:48.239Z,74.84
2023-01-05T04:01:20.301Z,74.83
2023-01-05T04:01:52.460Z,74.91
2023-01-05T04:02:24.727Z,75.03
2023-01-05T04:02:57.275Z,74.95
2023-01-05T04:03:31.866Z,74.88
2023-01-05T04:04:04.527Z,74.84
2023-01-05T04:04:36.749Z,74.95
2023-01-05T04:05:09.026Z,74.99
2023-01-05T04:05:41.230Z,74.76
2023-01-05T04:06:13.715Z,75.00
2023-01-05T04:06:45.838Z,74.93
2023-01-05T04:07:17.980Z,74.92
2023-01-05T04:07:50.127Z,74.70
2023-01-05T04:08:22.196Z,74.91
2023-01-05T04:08:54.183Z,74.73
2023-01-05T04:09:26.020Z,74.72
2023-01-05T04:09:57.934Z,74.78
2023-01-05T04:10:29.952Z,74.75
2023-01-05T04:11:19.814Z,74.82
2023-01-05T04:11:52.015Z,74.68
2023-01-05T04:12:23.962Z,74.66
2023-01-05T04:12:56.017Z,74.76
2023-01-05T04:13:28.039Z,74.73
2023-01-05T04:14:00.149Z,74.61
2023-01-05T04:14:32.049Z,74.74
2023-01-05T04:15:05.532Z,74.59
2023-01-05T04:15:38.279Z,74.67
2023-01-05T04:16:10.769Z,74.41
2023-01-05T04:16:42.871Z,74.60
2023-01-05T04:17:14.925Z,74.48
2023-01-05T04:17:47.011Z,74.69
2023-01-05T04:18:19.110Z,74.64
2023-01-05T04:18:51.166Z,74.65
2023-01-05T04:19:23.046Z,74.48
2023-01-05T04:19:55.658Z,74.50
2023-01-05T04:20:27.527Z,74.58
2023-01-05T04:20:59.623Z,74.59
2023-01-05T04:21:31.508Z,74.62
2023-01-05T04:22:03.526Z,74.58
2023-01-05T04:22:35.472Z,74.61
2023-01-05T04:23:07.507Z,74.59
2023-01-05T04:23:39.659Z,74.51
2023-01-05T04:24:12.506Z,74.64
2023-01-05T04:24:44.354Z,74.61
2023-01-05T04:25:16.707Z,74.67
2023-01-05T04:25:48.848Z,74.71
2023-01-05T04:26:20.760Z,74.66
2023-01-05T04:26:52.750Z,74.80
2023-01-05T04:27:24.738Z,74.69
2023-01-05T04:27:57.448Z,74.75
2023-01-05T04:28:29.653Z,74.59
2023-01-05T04:29:01.906Z,74.59
2023-01-05T04:29:33.990Z,74.56
2023-01-05T04:30:07.468Z,74.66
2023-01-05T04:30:39.726Z,74.67
2023-01-05T04:31:11.661Z,74.43
2023-01-05T04:31:43.549Z,74.72
2023-01-05T04:32:15.518Z,74.70
2023-01-05T04:32:47.524Z,74.65
2023-01-05T04:33:20.741Z,74.67
2023-01-05T04:33:52.833Z,74.64
2023-01-05T04:34:24.849Z,74.82
2023-01-05T04:34:56.941Z,74.75
2023-01-05T04:35:29.212Z,74.75
2023-01-05T04:36:01.152Z,74.70
2023-01-05T04:36:33.239Z,74.75
2023-01-05T04:37:05.152Z,74.78
2023-01-05T04:37:37.318Z,74.72
2023-01-05T04:38:09.278Z,74.87
2023-01-05T04:38:41.301Z,74.82
2023-01-05T04:39:13.964Z,74.97
2023-01-05T04:39:46.023Z,74.88
2023-01-05T04:40:17.997Z,74.83
2023-01-05T04:40:51.581Z,74.69
2023-01-05T04:41:23.488Z,74.81
2023-01-05T04:41:55.680Z,74.98
2023-01-05T04:42:28.282Z,74.94
2023-01-05T04:43:00.273Z,74.87
2023-01-05T04:43:32.267Z,75.03
2023-01-05T04:44:04.817Z,75.05
2023-01-05T04:44:36.911Z,74.98
2023-01-05T04:45:10.771Z,74.97
2023-01-05T04:45:42.727Z,75.33
2023-01-05T04:46:15.018Z,75.29
2023-01-05T04:46:47.525Z,75.34
2023-01-05T04:47:19.446Z,75.31
2023-01-05T04:47:52.250Z,75.37
2023-01-05T04:48:24.248Z,75.49
2023-01-05T04:48:56.128Z,75.40
2023-01-05T04:49:28.644Z,75.39
2023-01-05T04:50:00.508Z,75.53
2023-01-05T04:50:32.557Z,75.50
2023-01-05T04:51:04.571Z,75.56
2023-01-05T04:51:36.871Z,75.55
2023-01-05T04:52:09.634Z,75.45
2023-01-05T04:52:41.797Z,75.67
2023-01-05T04:53:13.993Z,75.63
2023-01-05T04:53:45.896Z,75.75
2023-01-05T04:54:18.080Z,75.59
2023-01-05T04:54:50.150Z,75.53
2023-01-05T04:55:22.153Z,75.65
2023-01-05T04:55:54.265Z,75.65
2023-01-05T04:56:26.895Z,75.59
2023-01-05T04:56:59.277Z,75.77
2023-01-05T04:57:31.602Z,75.83
2023-01-05T04:58:08.353Z,75.79
2023-01-05T04:58:43.808Z,75.85
2023-01-05T04:59:15.983Z,75.87
2023-01-05T04:59:47.932Z,75.89
2023-01-05T05:00:19.937Z,75.92
2023-01-05T05:00:51.999Z,75.93
2023-01-05T05:01:24.123Z,76.05
2023-01-05T05:01:56.331Z,76.06
2023-01-05T05:02:28.675Z,76.03
2023-01-05T05:03:01.968Z,76.09
2023-01-05T05:03:34.310Z,76.04
2023-01-05T05:04:06.456Z,75.91
2023-01-05T05:04:38.574Z,75.95
2023-01-05T05:05:10.553Z,76.05
2023-01-05T05:05:42.697Z,76.07
2023-01-05T05:06:16.459Z,76.12
2023-01-05T05:06:48.647Z,76.00
2023-01-05T05:07:20.680Z,75.99
2023-01-05T05:07:53.043Z,76.07
2023-01-05T05:08:25.261Z,75.97
2023-01-05T05:08:57.779Z,76.05
2023-01-05T05:09:29.839Z,76.23
2023-01-05T05:10:02.127Z,76.01
2023-01-05T05:10:34.107Z,76.05
2023-01-05T05:11:06.070Z,76.11
2023-01-05T05:11:38.178Z,76.14
2023-01-05T05:12:10.189Z,76.06
2023-01-05T05:12:42.245Z,75.99
2023-01-05T05:13:14.358Z,76.18
2023-01-05T05:13:46.492Z,75.98
2023-01-05T05:14:18.591Z,76.05
2023-01-05T05:14:50.758Z,76.19
2023-01-05T05:15:22.724Z,76.04
2023-01-05T05:15:54.790Z,75.91
2023-01-05T05:16:26.933Z,75.94
2023-01-05T05:16:59.012Z,76.03
2023-01-05T05:17:30.868Z,76.15
2023-01-05T05:18:08.664Z,76.00
2023-01-05T05:18:41.360Z,75.93
2023-01-05T05:19:13.507Z,75.91
2023-01-05T05:19:45.558Z,76.12
2023-01-05T05:20:17.674Z,76.12
2023-01-05T05:20:51.635Z,76.23
2023-01-05T05:21:23.895Z,75.95
2023-01-05T05:21:55.779Z,76.17
2023-01-05T05:22:28.116Z,76.14
2023-01-05T05:23:00.132Z,76.17
2023-01-05T05:23:32.214Z,76.19
2023-01-05T05:24:04.520Z,76.31
2023-01-05T05:24:36.496Z,76.16
2023-01-05T05:25:08.877Z,76.30
2023-01-05T05:25:40.817Z,76.02
2023-01-05T05:26:12.806Z,76.20
2023-01-05T05:26:54.934Z,76.12
2023-01-05T05:27:36.465Z,76.22
2023-01-05T05:28:31.750Z,76.16
2023-01-05T05:29:17.050Z,76.15
2023-01-05T05:29:49.012Z,76.24
2023-01-05T05:30:28.052Z,75.98
2023-01-05T05:31:07.816Z,76.18
2023-01-05T05:31:39.979Z,76.21
2023-01-05T05:32:12.003Z,76.04
2023-01-05T05:32:45.782Z,76.36
2023-01-05T05:33:30.207Z,76.19
2023-01-05T05:34:23.974Z,76.24
2023-01-05T05:34:56.039Z,76.16
2023-01-05T05:35:28.185Z,76.13
2023-01-05T05:36:01.407Z,76.26
2023-01-05T05:36:34.020Z,76.27
2023-01-05T05:37:06.312Z,76.40
2023-01-05T05:37:41.523Z,76.36
2023-01-05T05:38:13.571Z,76.49
2023-01-05T05:38:53.382Z,76.58
2023-01-05T05:39:45.344Z,76.49
2023-01-05T05:40:21.598Z,76.42
2023-01-05T05:40:53.676Z,76.42
2023-01-05T05:41:25.612Z,76.46
2023-01-05T05:41:57.697Z,76.59
2023-01-05T05:42:32.643Z,76.55
2023-01-05T05:43:04.773Z,76.76
2023-01-05T05:44:10.829Z,76.73
2023-01-05T05:44:42.845Z,76.76
2023-01-05T05:45:17.783Z,76.66
2023-01-05T05:45:50.811Z,76.77
2023-01-05T05:46:23.374Z,76.78
2023-01-05T05:47:06.173Z,76.82
2023-01-05T05:47:38.139Z,76.77
2023-01-05T05:48:15.993Z,76.91
2023-01-05T05:48:47.971Z,76.96
2023-01-05T05:49:20.169Z,76.91
2023-01-05T05:49:52.280Z,76.95
2023-01-05T05:50:24.289Z,76.93
2023-01-05T05:50:56.406Z,76.99
2023-01-05T05:51:28.483Z,77.05
2023-01-05T05:52:00.579Z,76.81
2023-01-05T05:52:32.505Z,76.91
2023-01-05T05:53:04.587Z,76.93
2023-01-05T05:53:36.675Z,76.87
2023-01-05T05:54:08.627Z,76.83
2023-01-05T05:54:40.795Z,76.98
2023-01-05T05:55:13.214Z,76.93
2023-01-05T05:55:49.870Z,76.85
2023-01-05T05:56:34.504Z,77.02
2023-01-05T05:57:09.340Z,77.04
2023-01-05T05:57:41.391Z,77.18
2023-01-05T05:58:13.520Z,77.11
2023-01-05T05:59:16.479Z,77.20
2023-01-05T05:59:48.447Z,77.24
2023-01-05T06:00:20.229Z,77.38
2023-01-05T06:01:09.606Z,77.27
2023-01-05T06:01:41.640Z,77.17
2023-01-05T06:02:13.763Z,77.16
2023-01-05T06:02:45.991Z,77.22
2023-01-05T06:03:42.983Z,77.27
2023-01-05T06:04:14.954Z,77.34
2023-01-05T06:04:46.787Z,77.31
2023-01-05T06:05:33.559Z,77.23
2023-01-05T06:06:05.881Z,77.18
2023-01-05T06:06:38.522Z,77.14
2023-01-05T06:07:10.408Z,77.31
2023-01-05T06:07:42.436Z,77.33
2023-01-05T06:08:14.822Z,77.29
2023-01-05T06:08:46.991Z,77.32
2023-01-05T06:09:19.000Z,77.46
2023-01-05T06:09:51.197Z,77.33
2023-01-05T06:10:23.849Z,77.35
2023-01-05T06:10:56.649Z,77.40
2023-01-05T06:11:28.801Z,77.35
2023-01-05T06:12:00.739Z,77.29
2023-01-05T06:12:33.142Z,77.35
2023-01-05T06:13:05.705Z,77.45
2023-01-05T06:13:37.724Z,77.28
2023-01-05T06:14:09.879Z,77.30
2023-01-05T06:14:42.076Z,77.28
2023-01-05T06:15:14.372Z,77.19
2023-01-05T06:15:46.726Z,77.43
2023-01-05T06:16:18.915Z,77.32
2023-01-05T06:16:51.373Z,77.40
2023-01-05T06:17:23.422Z,77.30
2023-01-05T06:17:55.834Z,77.24
2023-01-05T06:18:28.082Z,77.16
2023-01-05T06:19:00.017Z,77.18
2023-01-05T06:19:32.219Z,77.08
2023-01-05T06:20:05.773Z,77.26
2023-01-05T06:20:37.880Z,77.13
2023-01-05T06:21:12.419Z,77.11
2023-01-05T06:21:44.739Z,77.17
2023-01-05T06:22:16.858Z,77.04
2023-01-05T06:22:49.020Z,77.04
2023-01-05T06:23:21.128Z,77.08
2023-01-05T06:23:53.618Z,77.10
2023-01-05T06:24:25.724Z,77.15
2023-01-05T06:24:57.995Z,77.13
2023-01-05T06:25:30.034Z,77.30
2023-01-05T06:26:02.174Z,77.18
2023-01-05T06:26:34.246Z,77.10
2023-01-05T06:27:06.449Z,77.41
2023-01-05T06:27:38.411Z,77.38
2023-01-05T06:28:12.117Z,77.48
2023-01-05T06:28:45.952Z,77.34
2023-01-05T06:29:18.239Z,77.37
2023-01-05T06:29:50.277Z,77.52
2023-01-05T06:30:22.331Z,77.53
2023-01-05T06:30:54.485Z,77.58
2023-01-05T06:31:26.688Z,77.56
2023-01-05T06:31:58.970Z,77.63
2023-01-05T06:32:30.943Z,77.65
2023-01-05T06:33:03.323Z,77.75
2023-01-05T06:33:35.455Z,77.72
2023-01-05T06:34:07.740Z,77.77
2023-01-05T06:34:39.832Z,77.63
2023-01-05T06:35:12.021Z,77.69
2023-01-05T06:35:44.270Z,77.77
2023-01-05T06:36:16.491Z,77.86
2023-01-05T06:36:48.377Z,77.74
2023-01-05T06:37:20.387Z,77.83
2023-01-05T06:37:52.579Z,77.71
2023-01-05T06:38:25.650Z,77.68
2023-01-05T06:38:57.591Z,77.95
2023-01-05T06:39:29.586Z,77.89
2023-01-05T06:40:02.215Z,78.07
2023-01-05T06:40:34.455Z,78.03
2023-01-05T06:41:06.562Z,78.05
2023-01-05T06:41:38.732Z,78.08
2023-01-05T06:42:11.008Z,78.01
2023-01-05T06:42:43.529Z,78.12
2023-01-05T06:43:15.657Z,78.09
2023-01-05T06:43:47.729Z,78.19
2023-01-05T06:44:19.793Z,78.16
2023-01-05T06:44:51.840Z,78.25
2023-01-05T06:45:24.385Z,78.20
2023-01-05T06:45:56.757Z,78.13
2023-01-05T06:46:28.898Z,78.20
2023-01-05T06:47:01.333Z,78.06
2023-01-05T06:47:33.680Z,78.20
2023-01-05T06:48:05.977Z,78.12
2023-01-05T06:48:38.204Z,78.11
2023-01-05T06:49:11.956Z,78.02
2023-01-05T06:49:44.110Z,78.20
2023-01-05T06:50:16.400Z,78.22
2023-01-05T06:50:48.639Z,78.20
2023-01-05T06:51:20.917Z,78.21
2023-01-05T06:51:53.280Z,78.26
2023-01-05T06:52:25.605Z,78.21
2023-01-05T06:52:58.857Z,78.27
2023-01-05T06:53:31.112Z,78.30
2023-01-05T06:54:03.475Z,78.25
2023-01-05T06:54:35.569Z,78.20
2023-01-05T06:55:09.812Z,78.33
2023-01-05T06:55:41.910Z,78.19
2023-01-05T06:56:14.067Z,78.26
2023-01-05T06:56:46.389Z,78.25
2023-01-05T06:57:18.287Z,78.36
2023-01-05T06:57:51.560Z,78.37
2023-01-05T06:58:26.558Z,78.18
2023-01-05T06:58:58.946Z,78.28
2023-01-05T06:59:31.121Z,78.31
2023-01-05T07:00:10.005Z,78.30
2023-01-05T07:00:42.192Z,78.25
2023-01-05T07:01:14.663Z,78.56
2023-01-05T07:01:46.971Z,78.32
2023-01-05T07:02:19.177Z,78.31
2023-01-05T07:02:51.378Z,78.40
2023-01-05T07:03:24.014Z,78.29
2023-01-05T07:03:56.287Z,78.35
2023-01-05T07:04:28.573Z,78.28
2023-01-05T07:05:01.012Z,78.53
2023-01-05T07:05:33.095Z,78.41
2023-01-05T07:06:08.756Z,78.48
2023-01-05T07:06:45.207Z,78.47
2023-01-05T07:07:17.122Z,78.43
2023-01-05T07:07:49.086Z,78.51
2023-01-05T07:08:21.316Z,78.44
2023-01-05T07:09:10.688Z,78.62
2023-01-05T07:09:44.709Z,78.72
2023-01-05T07:10:16.821Z,78.62
2023-01-05T07:10:48.934Z,78.73
2023-01-05T07:11:21.052Z,78.64
2023-01-05T07:11:53.285Z,78.70
2023-01-05T07:12:26.035Z,78.73
2023-01-05T07:12:58.264Z,78.83
2023-01-05T07:13:30.479Z,78.78
2023-01-05T07:14:02.500Z,78.74
2023-01-05T07:14:34.772Z,78.77
2023-01-05T07:15:07.776Z,78.83
2023-01-05T07:15:40.132Z,78.82
2023-01-05T07:16:12.224Z,78.82
2023-01-05T07:16:44.439Z,78.84
2023-01-05T07:17:16.757Z,78.94
2023-01-05T07:17:48.829Z,79.05
2023-01-05T07:18:20.887Z,79.00
2023-01-05T07:18:53.108Z,78.80
2023-01-05T07:19:25.349Z,78.93
2023-01-05T07:19:57.466Z,78.93
2023-01-05T07:20:30.020Z,78.90
2023-01-05T07:21:02.133Z,78.90
2023-01-05T07:21:34.227Z,78.97
2023-01-05T07:22:06.421Z,78.96
2023-01-05T07:22:38.500Z,78.95
2023-01-05T07:23:57.095Z,78.86
2023-01-05T07:24:29.044Z,78.88
2023-01-05T07:25:01.039Z,78.92
2023-01-05T07:25:33.208Z,78.81
2023-01-05T07:26:07.321Z,78.85
2023-01-05T07:27:29.399Z,78.86
2023-01-05T07:28:01.569Z,78.87
2023-01-05T07:28:34.456Z,78.82
2023-01-05T07:29:06.359Z,78.94
2023-01-05T07:29:38.388Z,78.94
2023-01-05T07:30:19.376Z,78.96
2023-01-05T07:30:52.354Z,78.98
2023-01-05T07:31:24.419Z,79.05
2023-01-05T07:31:58.148Z,79.05
2023-01-05T07:32:30.121Z,79.19
2023-01-05T07:33:02.234Z,79.19
2023-01-05T07:33:39.653Z,79.20
2023-01-05T07:34:12.860Z,79.20
2023-01-05T07:34:54.880Z,79.19
2023-01-05T07:35:28.672Z,79.18
2023-01-05T07:36:02.021Z,79.18
2023-01-05T07:36:34.242Z,79.16
2023-01-05T07:37:06.216Z,79.17
2023-01-05T07:37:38.247Z,79.22
2023-01-05T07:38:10.481Z,79.15
2023-01-05T07:38:42.798Z,79.19
2023-01-05T07:39:15.552Z,79.16
2023-01-05T07:39:47.815Z,79.14
2023-01-05T07:40:20.008Z,79.14
2023-01-05T07:40:51.907Z,79.19
2023-01-05T07:41:23.968Z,79.13
2023-01-05T07:41:56.109Z,79.17
2023-01-05T07:42:28.084Z,79.16
2023-01-05T07:43:00.810Z,79.02
2023-01-05T07:43:32.945Z,79.06
2023-01-05T07:44:05.760Z,79.04
2023-01-05T07:44:37.755Z,79.25
2023-01-05T07:45:10.465Z,79.07
2023-01-05T07:45:43.407Z,79.09
2023-01-05T07:46:15.541Z,79.11
2023-01-05T07:46:47.638Z,79.02
2023-01-05T07:47:19.951Z,79.09